createdAt,value
2019-02-19T00:00:36.962Z,80.00
2019-02-19T00:03:03.469Z,82.37
2019-02-19T00:05:29.435Z,85.90
2019-02-19T00:07:55.524Z,86.53
2019-02-19T00:10:21.778Z,83.67
2019-02-19T00:12:47.792Z,81.40
2019-02-19T00:15:13.846Z,84.07
2019-02-19T00:17:39.918Z,85.20
2019-02-19T00:20:06.010Z,79.93
2019-02-19T00:22:32.046Z,77.70
2019-02-19T00:24:58.058Z,84.90
2019-02-19T00:27:24.061Z,84.93
2019-02-19T00:29:50.113Z,79.07
2019-02-19T00:32:15.987Z,82.87
2019-02-19T00:34:42.008Z,80.63
2019-02-19T00:37:08.331Z,81.77
2019-02-19T00:39:34.430Z,78.33
2019-02-19T00:42:00.530Z,78.87
2019-02-19T00:44:26.404Z,75.07
2019-02-19T00:46:52.399Z,78.27
2019-02-19T00:49:18.436Z,74.90
2019-02-19T00:51:44.323Z,78.57
2019-02-19T00:54:10.247Z,73.80
2019-02-19T00:56:36.232Z,81.90
2019-02-19T00:59:02.221Z,73.47
2019-02-19T01:01:28.238Z,78.50
2019-02-19T01:03:54.149Z,75.73
2019-02-19T01:06:20.246Z,77.47
2019-02-19T01:08:46.190Z,79.20
2019-02-19T01:11:12.149Z,74.50
2019-02-19T01:13:38.143Z,76.33
2019-02-19T01:16:04.288Z,87.53
2019-02-19T01:18:33.624Z,78.80
2019-02-19T01:20:59.644Z,75.57
2019-02-19T01:23:25.563Z,81.13
2019-02-19T01:25:51.523Z,82.83
2019-02-19T01:28:17.415Z,76.97
2019-02-19T01:30:43.426Z,76.30
2019-02-19T01:33:09.333Z,80.60
2019-02-19T01:35:35.210Z,82.47
2019-02-19T01:38:01.090Z,77.00
2019-02-19T01:40:26.958Z,79.27
2019-02-19T01:42:52.983Z,88.30
2019-02-19T01:45:19.085Z,87.13
2019-02-19T01:47:44.931Z,78.93
2019-02-19T01:50:11.049Z,84.53
2019-02-19T01:52:37.020Z,85.93
2019-02-19T01:55:05.345Z,84.70
2019-02-19T01:57:31.322Z,87.07
2019-02-19T01:59:57.236Z,90.27
2019-02-19T02:02:23.347Z,86.83
2019-02-19T02:04:49.249Z,92.97
2019-02-19T02:07:15.134Z,89.43
2019-02-19T02:09:41.068Z,89.97
2019-02-19T02:12:07.028Z,88.80
2019-02-19T02:14:32.907Z,83.30
2019-02-19T02:16:58.821Z,81.60
2019-02-19T02:19:24.981Z,83.13
2019-02-19T02:21:51.031Z,85.53
2019-02-19T02:24:16.926Z,83.73
2019-02-19T02:26:44.929Z,82.43
2019-02-19T02:29:10.957Z,83.13
2019-02-19T02:31:37.025Z,78.37
2019-02-19T02:34:02.911Z,81.60
2019-02-19T02:36:28.803Z,80.47
2019-02-19T02:38:54.783Z,79.03
2019-02-19T02:41:20.736Z,82.20
2019-02-19T02:43:46.804Z,84.23
2019-02-19T02:46:12.777Z,80.90
2019-02-19T02:48:38.670Z,78.53
2019-02-19T02:51:04.778Z,80.53
2019-02-19T02:53:30.658Z,81.27
2019-02-19T02:55:56.551Z,83.47
2019-02-19T02:58:22.525Z,80.97
2019-02-19T03:00:48.588Z,83.07
2019-02-19T03:03:14.459Z,83.40
2019-02-19T03:05:46.037Z,93.40
2019-02-19T03:08:12.094Z,89.03
2019-02-19T03:10:38.296Z,90.83
2019-02-19T03:13:04.287Z,84.03
2019-02-19T03:15:30.367Z,84.27
2019-02-19T03:17:56.241Z,86.30
2019-02-19T03:20:22.165Z,84.70
2019-02-19T03:22:48.045Z,90.77
2019-02-19T03:25:14.054Z,82.30
2019-02-19T03:27:40.005Z,89.27
2019-02-19T03:30:08.474Z,86.27
2019-02-19T03:32:34.367Z,87.17
2019-02-19T03:35:00.490Z,92.33
2019-02-19T03:37:26.506Z,83.83
2019-02-19T03:39:52.412Z,85.23
2019-02-19T03:42:18.402Z,84.50
2019-02-19T03:44:44.306Z,81.17
2019-02-19T03:47:10.217Z,79.10
2019-02-19T03:49:36.086Z,81.07
2019-02-19T03:52:01.959Z,79.93
2019-02-19T03:54:28.134Z,78.43
2019-02-19T03:56:54.143Z,75.83
2019-02-19T03:59:20.228Z,84.37
2019-02-19T04:01:46.359Z,82.90
2019-02-19T04:04:12.318Z,87.67
2019-02-19T04:06:38.194Z,84.13
2019-02-19T04:09:04.298Z,90.13
2019-02-19T04:11:30.315Z,86.23
2019-02-19T04:13:56.404Z,83.67
2019-02-19T04:16:22.285Z,79.97
2019-02-19T04:18:48.355Z,75.50
2019-02-19T04:21:18.254Z,80.80
2019-02-19T04:23:44.272Z,78.73
2019-02-19T04:26:10.287Z,89.50
2019-02-19T04:28:36.250Z,77.93
2019-02-19T04:31:02.261Z,77.77
2019-02-19T04:33:28.280Z,83.83
2019-02-19T04:35:54.255Z,79.37
2019-02-19T04:38:20.266Z,82.87
2019-02-19T04:40:46.386Z,76.93
2019-02-19T04:43:12.422Z,77.47
2019-02-19T04:45:38.430Z,75.93
2019-02-19T04:48:04.359Z,79.47
2019-02-19T04:50:30.316Z,79.07
2019-02-19T04:52:56.192Z,75.67
2019-02-19T04:55:22.250Z,76.13
2019-02-19T04:57:48.151Z,80.20
2019-02-19T05:00:14.226Z,74.60
2019-02-19T05:02:40.352Z,77.40
2019-02-19T05:05:06.444Z,83.43
2019-02-19T05:07:32.455Z,78.97
2019-02-19T05:09:58.490Z,80.47
2019-02-19T05:12:24.469Z,81.57
2019-02-19T05:14:50.379Z,82.77
2019-02-19T05:17:16.482Z,82.53
2019-02-19T05:19:42.403Z,82.43
2019-02-19T05:22:08.395Z,85.00
2019-02-19T05:24:34.392Z,79.13
2019-02-19T05:27:00.459Z,78.70
2019-02-19T05:29:26.523Z,79.83
2019-02-19T05:31:52.519Z,86.53
2019-02-19T05:34:18.371Z,83.63
2019-02-19T05:36:44.415Z,87.70
2019-02-19T05:39:10.417Z,84.27
2019-02-19T05:41:36.447Z,87.00
2019-02-19T05:44:02.537Z,84.43
2019-02-19T05:46:28.455Z,90.57
2019-02-19T05:48:54.414Z,86.27
2019-02-19T05:51:20.332Z,90.40
2019-02-19T05:53:46.233Z,90.37
2019-02-19T05:56:12.310Z,91.83
2019-02-19T05:58:38.204Z,90.87
2019-02-19T06:01:04.243Z,74.97
2019-02-19T06:03:30.141Z,84.33
2019-02-19T06:05:55.987Z,77.07
2019-02-19T06:08:21.942Z,82.33
2019-02-19T06:10:47.934Z,83.53
2019-02-19T06:13:13.943Z,83.50
2019-02-19T06:15:39.867Z,83.00
2019-02-19T06:18:05.746Z,90.13
2019-02-19T06:20:31.711Z,89.00
2019-02-19T06:22:57.704Z,95.93
2019-02-19T06:25:23.578Z,89.23
2019-02-19T06:27:49.710Z,97.00
2019-02-19T06:30:15.584Z,91.77
2019-02-19T06:32:41.443Z,89.60
2019-02-19T06:35:08.174Z,88.63
2019-02-19T06:37:34.168Z,92.90
2019-02-19T06:40:00.160Z,88.63
2019-02-19T06:42:26.317Z,86.87
2019-02-19T06:44:52.212Z,85.00
2019-02-19T06:47:18.264Z,87.33
2019-02-19T06:49:44.161Z,92.53
2019-02-19T06:52:10.195Z,86.20
2019-02-19T06:54:36.112Z,95.17
2019-02-19T06:57:01.976Z,81.53
2019-02-19T06:59:27.954Z,82.93
2019-02-19T07:01:58.821Z,85.67
2019-02-19T07:04:29.331Z,94.40
2019-02-19T07:06:55.427Z,80.63
2019-02-19T07:09:21.547Z,80.10
2019-02-19T07:11:47.534Z,74.17
2019-02-19T07:14:13.399Z,90.30
2019-02-19T07:16:39.309Z,82.87
2019-02-19T07:19:05.264Z,82.07
2019-02-19T07:21:31.176Z,86.00
2019-02-19T07:24:04.252Z,90.37
2019-02-19T07:26:25.129Z,85.33
2019-02-19T07:28:51.041Z,90.33
2019-02-19T07:31:18.863Z,87.73
2019-02-19T07:33:44.723Z,84.93
2019-02-19T07:36:10.739Z,86.07
2019-02-19T07:38:36.589Z,85.77
2019-02-19T07:41:02.718Z,77.90
2019-02-19T07:43:28.612Z,79.30
2019-02-19T07:45:54.500Z,85.73
2019-02-19T07:48:20.439Z,92.20
2019-02-19T07:50:46.315Z,97.70
2019-02-19T07:53:12.180Z,97.07
2019-02-19T07:55:38.260Z,95.77
2019-02-19T07:58:04.079Z,93.73
2019-02-19T08:00:29.957Z,90.83
2019-02-19T08:02:55.878Z,96.03
2019-02-19T08:05:21.881Z,102.20
2019-02-19T08:07:47.752Z,92.30
2019-02-19T08:10:13.746Z,95.33
2019-02-19T08:12:39.614Z,96.03
2019-02-19T08:15:08.538Z,96.33
2019-02-19T08:17:34.413Z,88.70
2019-02-19T08:20:00.499Z,83.47
2019-02-19T08:22:26.369Z,86.10
2019-02-19T08:24:52.297Z,92.57
2019-02-19T08:27:18.208Z,91.07
2019-02-19T08:29:44.097Z,93.00
2019-02-19T08:32:10.062Z,91.67
2019-02-19T08:34:35.973Z,101.60
2019-02-19T08:37:01.842Z,96.33
2019-02-19T08:39:27.801Z,92.27
2019-02-19T08:41:53.689Z,93.53
2019-02-19T08:44:19.564Z,89.70
2019-02-19T08:46:45.589Z,98.27
2019-02-19T08:49:11.465Z,87.13
2019-02-19T08:51:37.329Z,86.80
2019-02-19T08:54:03.435Z,85.07
2019-02-19T08:56:29.415Z,61.27
2019-02-19T08:58:55.276Z,70.67
2019-02-19T09:01:21.208Z,46.73
2019-02-19T09:03:47.299Z,77.13
2019-02-19T09:06:13.164Z,44.57
2019-02-19T09:08:39.149Z,35.10
2019-02-19T09:11:05.170Z,27.83
2019-02-19T09:13:31.168Z,27.40
2019-02-19T09:15:57.124Z,23.00
2019-02-19T09:18:22.996Z,27.10
2019-02-19T09:20:49.067Z,24.57
2019-02-19T09:23:15.063Z,25.97
2019-02-19T09:25:41.066Z,22.87
2019-02-19T09:28:06.953Z,23.97
2019-02-19T09:30:32.869Z,24.03
2019-02-19T09:32:59.019Z,28.53
2019-02-19T09:35:24.984Z,23.57
2019-02-19T09:37:50.829Z,28.33
2019-02-19T09:40:16.718Z,31.77
2019-02-19T09:42:42.612Z,30.43
2019-02-19T09:45:09.123Z,29.23
2019-02-19T09:47:35.094Z,29.63
2019-02-19T09:50:01.056Z,28.00
2019-02-19T09:52:26.994Z,26.97
2019-02-19T09:54:52.816Z,28.50
2019-02-19T09:57:18.728Z,30.00
2019-02-19T09:59:44.615Z,35.63
2019-02-19T10:02:10.494Z,27.67
2019-02-19T10:04:36.450Z,29.40
2019-02-19T10:07:02.430Z,30.43
2019-02-19T10:09:28.392Z,28.93
2019-02-19T10:11:54.404Z,27.67
2019-02-19T10:14:20.301Z,26.70
2019-02-19T10:16:46.188Z,25.77
2019-02-19T10:19:12.089Z,29.20
2019-02-19T10:21:37.963Z,26.07
2019-02-19T10:24:03.936Z,27.20
2019-02-19T10:26:33.424Z,25.17
2019-02-19T10:28:59.309Z,29.07
2019-02-19T10:31:25.291Z,29.77
2019-02-19T10:33:51.168Z,30.73
2019-02-19T10:36:17.243Z,28.47
2019-02-19T10:38:43.105Z,30.90
2019-02-19T10:41:08.998Z,27.93
2019-02-19T10:43:34.880Z,27.10
2019-02-19T10:46:00.929Z,30.40
2019-02-19T10:48:26.824Z,31.23
2019-02-19T10:50:52.705Z,34.93
2019-02-19T10:53:18.788Z,36.27
2019-02-19T10:55:44.794Z,30.67
2019-02-19T10:58:11.590Z,33.43
2019-02-19T11:00:37.731Z,31.80
2019-02-19T11:03:03.819Z,32.43
2019-02-19T11:05:29.686Z,33.27
2019-02-19T11:07:55.654Z,32.67
2019-02-19T11:10:21.652Z,30.37
2019-02-19T11:12:47.613Z,32.83
2019-02-19T11:15:14.254Z,30.63
2019-02-19T11:17:40.222Z,33.23
2019-02-19T11:20:15.215Z,29.10
2019-02-19T11:22:41.124Z,33.27
2019-02-19T11:25:09.945Z,30.87
2019-02-19T11:27:36.025Z,32.83
2019-02-19T11:30:03.570Z,33.23
2019-02-19T11:32:29.429Z,30.07
2019-02-19T11:34:55.295Z,30.63
2019-02-19T11:37:21.192Z,32.33
2019-02-19T11:39:47.054Z,35.53
2019-02-19T11:42:12.985Z,29.73
2019-02-19T11:44:38.878Z,32.43
2019-02-19T11:47:04.947Z,30.00
2019-02-19T11:49:30.836Z,30.73
2019-02-19T11:51:56.727Z,31.00
2019-02-19T11:54:22.717Z,31.70
2019-02-19T11:56:48.675Z,33.33
2019-02-19T11:59:14.581Z,32.10
2019-02-19T12:01:40.695Z,33.87
2019-02-19T12:04:06.675Z,31.07
2019-02-19T12:06:32.525Z,32.20
2019-02-19T12:08:58.511Z,35.17
2019-02-19T12:11:24.485Z,35.80
2019-02-19T12:13:50.531Z,39.73
2019-02-19T12:16:16.482Z,36.20
2019-02-19T12:18:46.139Z,33.13
2019-02-19T12:21:10.756Z,35.60
2019-02-19T12:23:36.659Z,33.43
2019-02-19T12:26:02.734Z,38.23
2019-02-19T12:28:28.886Z,34.10
2019-02-19T12:30:54.845Z,34.53
2019-02-19T12:33:20.788Z,36.13
2019-02-19T12:35:46.714Z,38.10
2019-02-19T12:38:12.702Z,35.90
2019-02-19T12:40:38.666Z,37.13
2019-02-19T12:43:04.636Z,39.00
2019-02-19T12:45:30.630Z,36.63
2019-02-19T12:47:56.675Z,34.97
2019-02-19T12:50:22.650Z,35.87
2019-02-19T12:52:48.545Z,34.53
2019-02-19T12:55:14.640Z,36.23
2019-02-19T12:57:40.510Z,35.40
2019-02-19T13:00:09.679Z,33.07
2019-02-19T13:02:35.663Z,32.23
2019-02-19T13:05:01.656Z,30.23
2019-02-19T13:07:27.549Z,32.77
2019-02-19T13:09:53.540Z,33.43
2019-02-19T13:12:19.535Z,30.43
2019-02-19T13:14:45.458Z,33.98
2019-02-19T13:17:11.522Z,29.10
2019-02-19T13:19:37.409Z,32.07
2019-02-19T13:22:03.432Z,28.90
2019-02-19T13:24:29.301Z,32.30
2019-02-19T13:26:55.164Z,28.33
2019-02-19T13:29:21.127Z,31.33
2019-02-19T13:31:47.007Z,30.20
2019-02-19T13:34:12.968Z,30.77
2019-02-19T13:36:38.876Z,31.27
2019-02-19T13:39:05.630Z,27.67
2019-02-19T13:41:31.600Z,28.30
2019-02-19T13:43:57.501Z,30.15
2019-02-19T13:46:23.494Z,33.18
2019-02-19T13:48:49.394Z,29.12
2019-02-19T13:51:15.432Z,31.05
2019-02-19T13:53:43.200Z,31.75
2019-02-19T13:56:09.113Z,33.88
2019-02-19T13:58:35.190Z,29.00
2019-02-19T14:01:01.050Z,33.85
2019-02-19T14:03:27.084Z,33.73
2019-02-19T14:05:53.076Z,32.40
2019-02-19T14:08:19.139Z,33.23
2019-02-19T14:10:45.127Z,34.00
2019-02-19T14:13:11.222Z,41.45
2019-02-19T14:15:38.994Z,31.00
2019-02-19T14:18:06.742Z,35.33
2019-02-19T14:20:52.949Z,37.97
2019-02-19T14:23:33.023Z,36.80
2019-02-19T14:26:17.626Z,34.57
2019-02-19T14:28:57.456Z,34.23
2019-02-19T14:31:28.247Z,38.33
2019-02-19T14:33:59.038Z,34.20
2019-02-19T14:36:29.720Z,33.30
2019-02-19T14:39:00.272Z,37.80
2019-02-19T14:41:33.769Z,36.73
2019-02-19T14:44:01.741Z,38.27
2019-02-19T14:46:35.352Z,44.23
2019-02-19T14:49:08.646Z,41.67
2019-02-19T14:51:42.543Z,41.60
2019-02-19T14:54:27.233Z,37.00
2019-02-19T14:57:00.895Z,37.57
2019-02-19T14:59:34.759Z,32.67
2019-02-19T15:02:05.065Z,35.07
2019-02-19T15:04:51.204Z,36.23
2019-02-19T15:07:30.931Z,42.17
2019-02-19T15:10:01.711Z,38.60
2019-02-19T15:12:41.770Z,41.53
2019-02-19T15:15:13.306Z,38.83
2019-02-19T15:17:41.172Z,32.47
2019-02-19T15:20:11.766Z,38.87
2019-02-19T15:22:42.522Z,34.73
2019-02-19T15:25:22.288Z,36.50
2019-02-19T15:28:06.563Z,35.50
2019-02-19T15:30:49.707Z,38.97
2019-02-19T15:33:32.853Z,44.93
2019-02-19T15:36:16.026Z,43.47
2019-02-19T15:38:58.905Z,45.33
2019-02-19T15:41:29.814Z,46.17
2019-02-19T15:44:09.835Z,48.73
2019-02-19T15:46:37.683Z,44.60
2019-02-19T15:49:05.663Z,50.40
2019-02-19T15:51:50.343Z,46.87
2019-02-19T15:54:18.136Z,52.10
2019-02-19T15:56:54.815Z,50.43
2019-02-19T15:59:31.889Z,46.60
2019-02-19T16:01:59.781Z,46.27
2019-02-19T16:04:39.612Z,44.70
2019-02-19T16:07:22.713Z,51.97
2019-02-19T16:09:56.464Z,51.63
2019-02-19T16:12:30.255Z,49.93
2019-02-19T16:14:58.003Z,48.87
2019-02-19T16:17:25.899Z,49.23
2019-02-19T16:19:57.287Z,48.23
2019-02-19T16:22:31.547Z,47.50
2019-02-19T16:24:59.456Z,45.03
2019-02-19T16:27:36.302Z,46.80
2019-02-19T16:30:06.944Z,47.03
2019-02-19T16:32:51.801Z,42.17
2019-02-19T16:35:31.665Z,46.10
2019-02-19T16:37:59.545Z,46.67
2019-02-19T16:40:33.328Z,44.77
2019-02-19T16:43:01.129Z,50.70
2019-02-19T16:45:45.832Z,46.63
2019-02-19T16:48:13.605Z,48.23
2019-02-19T16:50:47.451Z,48.40
2019-02-19T16:53:24.322Z,45.70
2019-02-19T16:56:04.192Z,50.03
2019-02-19T16:58:32.004Z,49.13
2019-02-19T17:00:59.790Z,47.00
2019-02-19T17:03:30.394Z,48.20
2019-02-19T17:05:58.327Z,54.03
2019-02-19T17:08:26.116Z,54.40
2019-02-19T17:10:59.781Z,54.77
2019-02-19T17:13:44.387Z,53.20
2019-02-19T17:16:17.920Z,43.93
2019-02-19T17:18:48.499Z,52.63
2019-02-19T17:21:34.591Z,51.47
2019-02-19T17:24:19.036Z,52.87
2019-02-19T17:26:49.566Z,47.07
2019-02-19T17:29:26.364Z,50.50
2019-02-19T17:31:54.130Z,48.17
2019-02-19T17:34:23.978Z,46.13
2019-02-19T17:36:54.858Z,59.00
2019-02-19T17:39:22.766Z,51.67
2019-02-19T17:41:50.512Z,59.70
2019-02-19T17:44:18.297Z,55.57
2019-02-19T17:46:55.049Z,52.67
2019-02-19T17:49:22.860Z,57.67
2019-02-19T17:51:53.310Z,57.10
2019-02-19T17:54:27.377Z,51.17
2019-02-19T17:56:57.973Z,55.03
2019-02-19T17:59:25.748Z,55.47
2019-02-19T18:02:10.365Z,62.30
2019-02-19T18:04:38.178Z,55.37
2019-02-19T18:07:16.109Z,52.37
2019-02-19T18:09:43.908Z,56.30
2019-02-19T18:12:28.548Z,57.13
2019-02-19T18:14:56.318Z,53.10
2019-02-19T18:17:30.127Z,52.73
2019-02-19T18:19:56.122Z,53.37
2019-02-19T18:22:21.976Z,58.07
2019-02-19T18:24:47.824Z,54.00
2019-02-19T18:27:13.703Z,57.60
2019-02-19T18:29:39.557Z,61.90
2019-02-19T18:32:05.548Z,66.10
2019-02-19T18:34:31.391Z,67.37
2019-02-19T18:37:00.703Z,67.93
2019-02-19T18:39:26.593Z,63.80
2019-02-19T18:41:52.560Z,69.70
2019-02-19T18:44:18.400Z,68.00
2019-02-19T18:46:44.345Z,75.43
2019-02-19T18:49:10.205Z,71.83
2019-02-19T18:51:36.141Z,74.77
2019-02-19T18:54:02.252Z,80.37
2019-02-19T18:56:28.110Z,80.33
2019-02-19T18:58:53.944Z,75.33
2019-02-19T19:01:19.799Z,77.77
2019-02-19T19:03:45.657Z,79.27
2019-02-19T19:06:11.557Z,73.20
2019-02-19T19:08:37.401Z,80.70
2019-02-19T19:11:03.357Z,85.03
2019-02-19T19:13:29.240Z,80.90
2019-02-19T19:15:55.090Z,81.40
2019-02-19T19:18:20.941Z,75.87
2019-02-19T19:20:46.918Z,83.03
2019-02-19T19:23:12.758Z,85.53
2019-02-19T19:25:38.629Z,79.90
2019-02-19T19:28:04.596Z,81.83
2019-02-19T19:30:30.449Z,79.17
2019-02-19T19:32:56.304Z,85.10
2019-02-19T19:35:22.170Z,82.30
2019-02-19T19:37:48.155Z,79.13
2019-02-19T19:40:14.029Z,79.80
2019-02-19T19:42:39.973Z,81.73
2019-02-19T19:45:08.486Z,82.43
2019-02-19T19:47:34.348Z,78.67
2019-02-19T19:50:00.215Z,80.73
2019-02-19T19:52:26.038Z,87.13
2019-02-19T19:54:51.931Z,103.77
2019-02-19T19:57:17.781Z,78.20
2019-02-19T19:59:43.619Z,84.27
2019-02-19T20:02:09.603Z,82.37
2019-02-19T20:04:35.560Z,79.47
2019-02-19T20:07:01.506Z,77.83
2019-02-19T20:09:27.368Z,85.83
2019-02-19T20:11:53.199Z,84.13
2019-02-19T20:14:20.552Z,78.63
2019-02-19T20:16:46.400Z,78.13
2019-02-19T20:19:12.266Z,81.40
2019-02-19T20:21:38.352Z,76.53
2019-02-19T20:24:04.662Z,83.37
2019-02-19T20:26:31.035Z,78.50
2019-02-19T20:28:57.463Z,79.57
2019-02-19T20:31:23.917Z,77.70
2019-02-19T20:33:50.547Z,75.80
2019-02-19T20:36:17.434Z,80.17
2019-02-19T20:38:44.471Z,78.27
2019-02-19T20:41:11.793Z,81.90
2019-02-19T20:43:39.039Z,84.63
2019-02-19T20:46:06.409Z,74.77
2019-02-19T20:48:33.771Z,79.20
2019-02-19T20:51:01.184Z,79.63
2019-02-19T20:53:29.008Z,80.40
2019-02-19T20:55:55.781Z,84.60
2019-02-19T20:58:22.716Z,81.73
2019-02-19T21:00:49.593Z,81.27
2019-02-19T21:03:16.035Z,82.07
2019-02-19T21:05:42.202Z,83.90
2019-02-19T21:08:08.414Z,86.83
2019-02-19T21:10:34.454Z,81.37
2019-02-19T21:13:00.386Z,93.13
2019-02-19T21:15:26.328Z,89.10
2019-02-19T21:17:52.276Z,84.37
2019-02-19T21:20:18.116Z,80.37
2019-02-19T21:22:44.101Z,82.73
2019-02-19T21:25:10.398Z,81.27
2019-02-19T21:27:36.251Z,77.23
2019-02-19T21:30:05.014Z,77.83
2019-02-19T21:32:30.894Z,80.93
2019-02-19T21:34:56.765Z,80.63
2019-02-19T21:37:25.867Z,78.80
2019-02-19T21:39:51.738Z,75.33
2019-02-19T21:42:18.476Z,83.07
2019-02-19T21:44:44.339Z,75.93
2019-02-19T21:47:10.268Z,79.03
2019-02-19T21:49:36.156Z,88.73
2019-02-19T21:52:02.037Z,83.63
2019-02-19T21:54:27.942Z,84.90
2019-02-19T21:56:53.847Z,83.13
2019-02-19T21:59:19.701Z,87.10
2019-02-19T22:01:45.593Z,85.17
2019-02-19T22:04:11.456Z,87.53
2019-02-19T22:06:37.290Z,83.53
2019-02-19T22:09:04.164Z,88.67
2019-02-19T22:11:30.046Z,83.93
2019-02-19T22:13:55.947Z,90.03
2019-02-19T22:16:21.835Z,87.17
2019-02-19T22:18:47.688Z,86.50
2019-02-19T22:21:18.686Z,92.17
2019-02-19T22:23:44.641Z,85.30
2019-02-19T22:26:10.669Z,93.40
2019-02-19T22:28:36.498Z,89.63
2019-02-19T22:31:02.335Z,95.07
2019-02-19T22:33:28.344Z,85.83
2019-02-19T22:35:54.196Z,86.30
2019-02-19T22:38:20.122Z,84.20
2019-02-19T22:40:54.823Z,92.53
2019-02-19T22:43:13.937Z,85.77
2019-02-19T22:45:39.904Z,89.73
2019-02-19T22:48:05.897Z,90.27
2019-02-19T22:50:31.752Z,87.43
2019-02-19T22:52:57.610Z,89.50
2019-02-19T22:55:28.097Z,85.37
2019-02-19T22:57:53.965Z,85.00
2019-02-19T23:00:46.663Z,88.37
2019-02-19T23:03:12.836Z,80.67
2019-02-19T23:05:38.796Z,81.57
2019-02-19T23:08:04.657Z,85.27
2019-02-19T23:10:30.776Z,87.93
2019-02-19T23:12:56.653Z,80.83
2019-02-19T23:15:22.563Z,82.37
2019-02-19T23:17:48.444Z,85.03
2019-02-19T23:20:14.402Z,83.23
2019-02-19T23:22:40.255Z,87.63
2019-02-19T23:25:06.390Z,80.27
2019-02-19T23:27:32.330Z,80.53
2019-02-19T23:29:58.190Z,85.37
2019-02-19T23:32:24.096Z,88.60
2019-02-19T23:34:52.076Z,85.07
2019-02-19T23:37:17.976Z,83.33
2019-02-19T23:39:47.828Z,94.87
2019-02-19T23:42:13.671Z,86.23
2019-02-19T23:44:39.560Z,86.07
2019-02-19T23:47:05.429Z,85.23
2019-02-19T23:49:31.373Z,90.07
2019-02-19T23:51:57.280Z,87.77
2019-02-19T23:54:23.147Z,89.17
2019-02-19T23:56:48.993Z,86.37
2019-02-19T23:59:14.884Z,97.57
